Terminal Aerodrome Forecast
Issued by NWS

Home | Current Version | Previous Version | Text Only | Print | Product List | Glossary On
Versions: 1 2 3 4 5 6 7 8 9 10 11 12 13
444
FTUS44 KLIX 171626 AAA
TAFGPT
TAF AMD
KGPT 171626Z 1716/1812 16005KT 5SM -TSRA BR FEW006 SCT015 OVC029CB
      TEMPO 1716/1718 VRB15G25KT 1SM +TSRA SCT006 BKN015CB
     FM172000 17008KT P6SM BKN017 OVC035
     FM172300 17004KT P6SM BKN028 BKN060
     FM180200 17005KT P6SM FEW018 BKN200
     FM181000 15006KT 3SM BR BKN008 BKN120=

USA.gov is the U.S. government's official web portal to all federal, state and local government web resources and services.